createdAt,value
2018-09-29T00:00:14.525Z,3.30
2018-09-29T00:02:42.836Z,3.40
2018-09-29T00:05:11.189Z,3.50
2018-09-29T00:07:39.580Z,3.30
2018-09-29T00:10:08.039Z,3.10
2018-09-29T00:12:36.349Z,3.10
2018-09-29T00:15:05.424Z,3.20
2018-09-29T00:17:33.962Z,3.30
2018-09-29T00:20:02.639Z,3.40
2018-09-29T00:22:31.009Z,3.30
2018-09-29T00:24:59.359Z,3.30
2018-09-29T00:27:27.657Z,3.10
2018-09-29T00:29:55.958Z,3.00
2018-09-29T00:32:24.305Z,3.00
2018-09-29T00:34:52.605Z,2.90
2018-09-29T00:37:20.933Z,2.70
2018-09-29T00:39:49.281Z,2.60
2018-09-29T00:42:17.608Z,2.30
2018-09-29T00:44:46.016Z,2.10
2018-09-29T00:47:14.332Z,1.90
2018-09-29T00:49:42.692Z,1.90
2018-09-29T00:52:10.985Z,1.80
2018-09-29T00:54:39.309Z,1.70
2018-09-29T00:57:07.816Z,1.80
2018-09-29T00:59:36.169Z,1.70
2018-09-29T01:02:04.588Z,1.80
2018-09-29T01:04:32.943Z,1.70
2018-09-29T01:07:01.247Z,1.80
2018-09-29T01:09:29.660Z,1.70
2018-09-29T01:11:58.011Z,1.70
2018-09-29T01:14:26.322Z,1.80
2018-09-29T01:17:01.512Z,1.80
2018-09-29T01:19:29.885Z,1.90
2018-09-29T01:21:58.512Z,2.00
2018-09-29T01:24:26.857Z,1.90
2018-09-29T01:26:55.186Z,1.80
2018-09-29T01:29:23.572Z,1.70
2018-09-29T01:31:51.929Z,1.70
2018-09-29T01:34:20.224Z,1.70
2018-09-29T01:36:48.584Z,1.70
2018-09-29T01:39:16.944Z,1.60
2018-09-29T01:41:45.248Z,1.70
2018-09-29T01:44:13.805Z,1.60
2018-09-29T01:46:42.156Z,1.50
2018-09-29T01:49:10.624Z,1.30
2018-09-29T01:51:38.943Z,1.30
2018-09-29T01:54:08.184Z,1.20
2018-09-29T01:56:36.525Z,1.20
2018-09-29T01:59:05.208Z,1.10
2018-09-29T02:01:33.753Z,1.10
2018-09-29T02:04:02.082Z,1.10
2018-09-29T02:06:30.381Z,1.20
2018-09-29T02:08:58.784Z,1.20
2018-09-29T02:11:27.193Z,1.20
2018-09-29T02:13:55.493Z,1.20
2018-09-29T02:16:23.873Z,1.20
2018-09-29T02:18:52.258Z,1.10
2018-09-29T02:21:20.622Z,1.20
2018-09-29T02:23:49.236Z,1.30
2018-09-29T02:26:17.549Z,1.20
2018-09-29T02:28:45.863Z,1.20
2018-09-29T02:31:14.717Z,1.10
2018-09-29T02:33:43.162Z,1.10
2018-09-29T02:36:11.563Z,1.00
2018-09-29T02:38:39.972Z,1.00
2018-09-29T02:41:08.321Z,1.00
2018-09-29T02:43:36.763Z,1.00
2018-09-29T02:46:05.140Z,1.00
2018-09-29T02:48:33.442Z,1.00
2018-09-29T02:51:01.745Z,1.00
2018-09-29T02:53:30.392Z,1.00
2018-09-29T02:55:58.691Z,0.90
2018-09-29T02:58:27.036Z,0.90
2018-09-29T03:00:55.389Z,0.80
2018-09-29T03:03:23.704Z,0.80
2018-09-29T03:05:52.021Z,0.80
2018-09-29T03:08:20.368Z,0.90
2018-09-29T03:10:48.692Z,1.00
2018-09-29T03:13:17.084Z,1.00
2018-09-29T03:15:45.494Z,0.90
2018-09-29T03:18:14.013Z,0.90
2018-09-29T03:20:42.300Z,0.90
2018-09-29T03:23:10.899Z,0.80
2018-09-29T03:25:39.176Z,0.80
2018-09-29T03:28:07.793Z,0.80
2018-09-29T03:30:36.206Z,0.70
2018-09-29T03:33:04.540Z,0.70
2018-09-29T03:35:32.836Z,0.70
2018-09-29T03:38:01.140Z,0.70
2018-09-29T03:40:29.437Z,0.70
2018-09-29T03:42:57.766Z,0.60
2018-09-29T03:45:26.105Z,0.70
2018-09-29T03:47:54.462Z,0.70
2018-09-29T03:50:22.753Z,0.70
2018-09-29T03:52:51.112Z,0.70
2018-09-29T03:55:19.437Z,0.70
2018-09-29T03:57:47.716Z,0.80
2018-09-29T04:00:16.297Z,0.80
2018-09-29T04:02:44.976Z,0.70
2018-09-29T04:05:13.411Z,0.70
2018-09-29T04:07:42.045Z,0.60
2018-09-29T04:10:10.429Z,0.60
2018-09-29T04:12:38.781Z,0.60
2018-09-29T04:15:07.469Z,0.50
2018-09-29T04:17:35.760Z,0.60
2018-09-29T04:20:04.077Z,0.40
2018-09-29T04:22:32.464Z,0.20
2018-09-29T04:25:00.784Z,0.20
2018-09-29T04:27:29.084Z,0.10
2018-09-29T04:29:57.412Z,0.20
2018-09-29T04:32:25.726Z,0.30
2018-09-29T04:34:54.033Z,0.30
2018-09-29T04:37:22.369Z,0.30
2018-09-29T04:39:50.727Z,0.30
2018-09-29T04:42:19.304Z,0.30
2018-09-29T04:44:47.629Z,0.30
2018-09-29T04:47:16.061Z,0.30
2018-09-29T04:49:44.361Z,0.30
2018-09-29T04:52:12.713Z,0.40
2018-09-29T04:54:41.272Z,0.50
2018-09-29T04:57:09.692Z,0.50
2018-09-29T04:59:38.025Z,0.50
2018-09-29T05:02:06.464Z,0.40
2018-09-29T05:04:34.828Z,0.40
2018-09-29T05:07:03.172Z,0.40
2018-09-29T05:09:31.504Z,0.40
2018-09-29T05:11:59.825Z,0.40
2018-09-29T05:14:28.253Z,0.30
2018-09-29T05:16:56.549Z,0.20
2018-09-29T05:19:24.864Z,0.10
2018-09-29T05:21:53.271Z,0.00
2018-09-29T05:24:21.781Z,0.00
2018-09-29T05:26:50.115Z,0.00
2018-09-29T05:29:20.548Z,0.00
2018-09-29T05:31:48.981Z,0.00
2018-09-29T05:34:17.575Z,0.30
2018-09-29T05:36:45.881Z,0.50
2018-09-29T05:39:14.300Z,0.60
2018-09-29T05:41:42.626Z,0.60
2018-09-29T05:44:11.252Z,0.70
2018-09-29T05:46:39.627Z,0.70
2018-09-29T05:49:07.945Z,0.80
2018-09-29T05:51:36.255Z,0.90
2018-09-29T05:54:04.662Z,0.90
2018-09-29T05:56:32.943Z,1.00
2018-09-29T05:59:01.285Z,1.20
2018-09-29T06:01:29.705Z,1.40
2018-09-29T06:03:58.045Z,1.60
2018-09-29T06:06:26.396Z,2.00
2018-09-29T06:08:54.733Z,2.40
2018-09-29T06:11:23.424Z,2.70
2018-09-29T06:13:51.967Z,2.90
2018-09-29T06:16:20.838Z,3.20
2018-09-29T06:18:49.312Z,3.40
2018-09-29T06:21:17.723Z,3.50
2018-09-29T06:23:46.089Z,3.60
2018-09-29T06:26:15.745Z,3.50
2018-09-29T06:28:44.454Z,3.50
2018-09-29T06:31:13.425Z,3.60
2018-09-29T06:33:42.131Z,3.60
2018-09-29T06:36:10.524Z,3.60
2018-09-29T06:38:38.889Z,3.60
2018-09-29T06:41:07.499Z,3.60
2018-09-29T06:43:35.849Z,3.60
2018-09-29T06:46:04.146Z,3.70
2018-09-29T06:48:32.872Z,3.80
2018-09-29T06:51:01.254Z,3.90
2018-09-29T06:53:29.569Z,4.00
2018-09-29T06:55:57.973Z,4.20
2018-09-29T06:58:26.305Z,4.40
2018-09-29T07:00:54.689Z,4.70
2018-09-29T07:03:23.297Z,5.10
2018-09-29T07:05:51.682Z,5.10
2018-09-29T07:08:20.181Z,5.40
2018-09-29T07:10:48.564Z,5.80
2018-09-29T07:13:17.086Z,5.90
2018-09-29T07:15:45.406Z,6.20
2018-09-29T07:18:13.947Z,6.60
2018-09-29T07:20:42.266Z,6.90
2018-09-29T07:23:10.688Z,7.60
2018-09-29T07:25:39.391Z,9.20
2018-09-29T07:28:07.741Z,11.10
2018-09-29T07:30:36.085Z,12.60
2018-09-29T07:33:04.423Z,13.80
2018-09-29T07:35:32.779Z,14.30
2018-09-29T07:38:01.173Z,14.90
2018-09-29T07:40:29.515Z,15.30
2018-09-29T07:42:57.930Z,15.80
2018-09-29T07:45:26.387Z,15.20
2018-09-29T07:47:54.748Z,16.10
2018-09-29T07:50:23.156Z,15.80
2018-09-29T07:52:51.488Z,15.40
2018-09-29T07:55:20.001Z,16.10
2018-09-29T07:57:48.330Z,16.70
2018-09-29T08:00:16.807Z,17.40
2018-09-29T08:02:45.147Z,18.10
2018-09-29T08:05:13.469Z,18.30
2018-09-29T08:07:41.821Z,17.10
2018-09-29T08:10:10.156Z,17.10
2018-09-29T08:12:38.465Z,16.30
2018-09-29T08:15:06.813Z,14.50
2018-09-29T08:17:35.145Z,13.10
2018-09-29T08:20:03.506Z,12.40
2018-09-29T08:22:31.856Z,11.50
2018-09-29T08:25:00.209Z,10.80
2018-09-29T08:27:28.569Z,10.30
2018-09-29T08:29:56.902Z,10.10
2018-09-29T08:32:25.322Z,9.90
2018-09-29T08:34:53.578Z,9.70
2018-09-29T08:37:21.905Z,9.40
2018-09-29T08:39:50.201Z,9.30
2018-09-29T08:42:18.496Z,9.10
2018-09-29T08:44:46.796Z,9.10
2018-09-29T08:47:15.092Z,9.00
2018-09-29T08:49:43.380Z,9.00
2018-09-29T08:52:11.669Z,8.90
2018-09-29T08:54:39.956Z,8.80
2018-09-29T08:57:08.257Z,8.80
2018-09-29T08:59:36.532Z,8.90
2018-09-29T09:02:04.916Z,9.10
2018-09-29T09:04:33.385Z,9.30
2018-09-29T09:07:01.755Z,9.50
2018-09-29T09:09:30.140Z,9.60
2018-09-29T09:11:58.689Z,9.60
2018-09-29T09:14:26.986Z,9.60
2018-09-29T09:16:55.294Z,9.70
2018-09-29T09:19:23.724Z,9.80
2018-09-29T09:21:52.000Z,9.90
2018-09-29T09:24:20.515Z,10.00
2018-09-29T09:26:48.726Z,10.10
2018-09-29T09:29:17.049Z,10.30
2018-09-29T09:31:45.344Z,10.40
2018-09-29T09:34:13.647Z,10.60
2018-09-29T09:36:41.929Z,10.70
2018-09-29T09:39:11.189Z,10.70
2018-09-29T09:41:39.510Z,10.70
2018-09-29T09:44:07.877Z,10.90
2018-09-29T09:46:36.420Z,11.10
2018-09-29T09:49:05.352Z,11.10
2018-09-29T09:51:33.735Z,10.90
2018-09-29T09:54:02.093Z,10.70
2018-09-29T09:56:30.428Z,10.60
2018-09-29T09:58:58.721Z,10.60
2018-09-29T10:01:32.347Z,10.40
2018-09-29T10:04:00.649Z,10.40
2018-09-29T10:06:28.979Z,10.30
2018-09-29T10:08:57.313Z,10.30
2018-09-29T10:11:25.601Z,10.40
2018-09-29T10:13:53.879Z,10.40
2018-09-29T10:16:22.213Z,10.40
2018-09-29T10:18:50.513Z,10.40
2018-09-29T10:21:18.853Z,10.50
2018-09-29T10:23:47.193Z,10.50
2018-09-29T10:26:15.507Z,10.40
2018-09-29T10:28:43.813Z,10.30
2018-09-29T10:31:12.213Z,10.30
2018-09-29T10:33:40.526Z,10.30
2018-09-29T10:36:08.834Z,10.20
2018-09-29T10:38:37.520Z,10.40
2018-09-29T10:41:05.885Z,10.50
2018-09-29T10:43:34.341Z,10.40
2018-09-29T10:46:03.208Z,10.30
2018-09-29T10:48:31.504Z,10.30
2018-09-29T10:50:59.798Z,10.30
2018-09-29T10:53:28.124Z,10.40
2018-09-29T10:55:56.418Z,10.30
2018-09-29T10:58:24.728Z,10.30
2018-09-29T11:00:53.156Z,10.40
2018-09-29T11:03:21.558Z,10.40
2018-09-29T11:05:49.864Z,10.40
2018-09-29T11:08:18.193Z,10.40
2018-09-29T11:10:46.492Z,10.50
2018-09-29T11:13:14.792Z,10.40
2018-09-29T11:15:43.093Z,10.40
2018-09-29T11:18:11.389Z,10.30
2018-09-29T11:20:39.732Z,10.20
2018-09-29T11:23:08.125Z,10.20
2018-09-29T11:25:36.428Z,10.30
2018-09-29T11:28:04.744Z,10.40
2018-09-29T11:30:33.092Z,10.50
2018-09-29T11:33:01.384Z,10.60
2018-09-29T11:35:29.665Z,10.70
2018-09-29T11:37:57.984Z,10.60
2018-09-29T11:40:26.381Z,10.50
2018-09-29T11:42:54.895Z,10.40
2018-09-29T11:45:23.221Z,10.40
2018-09-29T11:47:51.552Z,10.50
2018-09-29T11:50:19.862Z,10.60
2018-09-29T11:52:48.196Z,10.70
2018-09-29T11:55:16.501Z,10.70
2018-09-29T11:57:51.084Z,10.60
2018-09-29T12:00:19.390Z,10.80
2018-09-29T12:02:48.252Z,10.80
2018-09-29T12:05:16.578Z,10.80
2018-09-29T12:07:45.023Z,10.70
2018-09-29T12:10:13.174Z,10.70
2018-09-29T12:12:41.480Z,10.60
2018-09-29T12:15:09.828Z,10.50
2018-09-29T12:17:38.420Z,10.60
2018-09-29T12:20:06.777Z,10.70
2018-09-29T12:22:35.345Z,10.80
2018-09-29T12:25:03.676Z,10.90
2018-09-29T12:27:32.227Z,10.90
2018-09-29T12:30:00.561Z,11.00
2018-09-29T12:32:28.865Z,11.10
2018-09-29T12:34:57.161Z,11.20
2018-09-29T12:37:25.536Z,11.20
2018-09-29T12:39:53.800Z,11.10
2018-09-29T12:42:22.177Z,11.10
2018-09-29T12:44:50.830Z,11.00
2018-09-29T12:47:19.116Z,11.10
2018-09-29T12:49:47.462Z,11.30
2018-09-29T12:52:15.769Z,11.30
2018-09-29T12:54:44.116Z,11.30
2018-09-29T12:57:12.424Z,11.30
2018-09-29T12:59:40.721Z,11.20
2018-09-29T13:02:09.285Z,11.20
2018-09-29T13:04:37.777Z,11.10
2018-09-29T13:07:06.065Z,11.20
2018-09-29T13:09:34.489Z,11.30
2018-09-29T13:12:02.813Z,11.30
2018-09-29T13:14:31.426Z,11.30
2018-09-29T13:16:59.782Z,11.40
2018-09-29T13:19:28.113Z,11.30
2018-09-29T13:21:56.407Z,11.20
2018-09-29T13:24:24.717Z,11.20
2018-09-29T13:26:53.025Z,11.20
2018-09-29T13:29:21.331Z,11.30
2018-09-29T13:31:49.661Z,11.40
2018-09-29T13:34:17.956Z,11.50
2018-09-29T13:36:46.768Z,11.60
2018-09-29T13:39:15.066Z,11.60
2018-09-29T13:41:43.389Z,11.50
2018-09-29T13:44:11.676Z,11.50
2018-09-29T13:46:39.953Z,11.40
2018-09-29T13:49:08.269Z,11.40
2018-09-29T13:51:36.560Z,11.50
2018-09-29T13:54:04.921Z,11.40
2018-09-29T13:56:33.216Z,11.40
2018-09-29T13:59:01.512Z,11.30
2018-09-29T14:01:29.793Z,11.30
2018-09-29T14:03:58.106Z,11.50
2018-09-29T14:06:26.401Z,11.40
2018-09-29T14:08:54.686Z,11.40
2018-09-29T14:11:23.029Z,11.40
2018-09-29T14:13:51.329Z,11.50
2018-09-29T14:16:19.624Z,11.40
2018-09-29T14:18:48.012Z,11.40
2018-09-29T14:21:16.297Z,11.40
2018-09-29T14:23:44.593Z,11.40
2018-09-29T14:26:12.896Z,11.40
2018-09-29T14:28:41.181Z,11.50
2018-09-29T14:31:09.478Z,11.40
2018-09-29T14:33:37.860Z,11.50
2018-09-29T14:36:06.200Z,11.50
2018-09-29T14:38:34.524Z,11.50
2018-09-29T14:41:02.929Z,11.40
2018-09-29T14:43:31.271Z,11.40
2018-09-29T14:45:59.797Z,11.40
2018-09-29T14:48:28.277Z,11.40
2018-09-29T14:50:56.572Z,11.40
2018-09-29T14:53:25.571Z,11.40
2018-09-29T14:55:54.202Z,11.40
2018-09-29T14:58:22.521Z,11.40
2018-09-29T15:00:50.840Z,11.40
2018-09-29T15:03:19.202Z,11.40
2018-09-29T15:05:47.564Z,11.40
2018-09-29T15:08:16.115Z,11.40
2018-09-29T15:10:44.624Z,11.40
2018-09-29T15:13:12.941Z,11.40
2018-09-29T15:15:41.332Z,11.40
2018-09-29T15:18:09.660Z,11.50
2018-09-29T15:20:38.006Z,11.50
2018-09-29T15:23:06.337Z,11.50
2018-09-29T15:25:34.755Z,11.40
2018-09-29T15:28:03.091Z,11.30
2018-09-29T15:30:31.619Z,11.30
2018-09-29T15:32:59.986Z,11.20
2018-09-29T15:35:28.518Z,11.20
2018-09-29T15:37:56.948Z,11.30
2018-09-29T15:40:25.582Z,11.40
2018-09-29T15:42:54.273Z,11.30
2018-09-29T15:45:22.448Z,11.30
2018-09-29T15:47:50.801Z,11.30
2018-09-29T15:50:19.265Z,11.20
2018-09-29T15:52:48.160Z,11.20
2018-09-29T15:55:16.756Z,11.10
2018-09-29T15:57:45.150Z,11.10
2018-09-29T16:00:13.580Z,11.00
2018-09-29T16:02:42.217Z,11.10
2018-09-29T16:05:10.577Z,11.00
2018-09-29T16:07:39.074Z,11.00
2018-09-29T16:10:07.785Z,11.00
2018-09-29T16:12:36.218Z,11.00
2018-09-29T16:15:04.654Z,11.00
2018-09-29T16:17:33.053Z,10.90
2018-09-29T16:20:01.389Z,10.90
2018-09-29T16:22:29.712Z,10.80
2018-09-29T16:24:58.080Z,10.80
2018-09-29T16:27:26.433Z,10.70
2018-09-29T16:29:54.738Z,10.70
2018-09-29T16:32:23.082Z,10.60
2018-09-29T16:34:51.401Z,10.60
2018-09-29T16:37:19.723Z,10.50
2018-09-29T16:39:48.027Z,10.40
2018-09-29T16:42:16.449Z,10.40
2018-09-29T16:44:44.840Z,10.30
2018-09-29T16:47:13.204Z,10.10
2018-09-29T16:49:41.505Z,10.00
2018-09-29T16:52:09.816Z,9.90
2018-09-29T16:54:38.497Z,9.90
2018-09-29T16:57:06.865Z,9.80
2018-09-29T16:59:35.209Z,9.80
2018-09-29T17:02:03.549Z,9.70
2018-09-29T17:04:32.219Z,9.70
2018-09-29T17:07:00.556Z,9.60
2018-09-29T17:09:28.937Z,9.60
2018-09-29T17:11:57.276Z,9.50
2018-09-29T17:14:25.623Z,9.40
2018-09-29T17:16:53.980Z,9.30
2018-09-29T17:19:22.330Z,9.30
2018-09-29T17:21:50.664Z,9.20
2018-09-29T17:24:19.072Z,9.00
2018-09-29T17:26:47.441Z,8.90
2018-09-29T17:29:15.844Z,8.80
2018-09-29T17:31:44.285Z,8.70
2018-09-29T17:34:12.698Z,8.60
2018-09-29T17:36:41.090Z,8.40
2018-09-29T17:39:10.893Z,8.40
2018-09-29T17:41:39.549Z,8.30
2018-09-29T17:44:07.942Z,8.30
2018-09-29T17:46:36.493Z,8.30
2018-09-29T17:49:05.499Z,8.30
2018-09-29T17:51:33.867Z,8.40
2018-09-29T17:54:02.314Z,8.40
2018-09-29T17:56:30.928Z,8.30
2018-09-29T17:59:00.464Z,8.30
2018-09-29T18:01:28.861Z,8.30
2018-09-29T18:03:57.268Z,8.20
2018-09-29T18:06:25.675Z,8.10
2018-09-29T18:08:54.225Z,8.10
2018-09-29T18:11:22.595Z,8.10
2018-09-29T18:13:50.932Z,8.10
2018-09-29T18:16:19.242Z,7.80
2018-09-29T18:18:47.561Z,7.50
2018-09-29T18:21:15.902Z,7.20
2018-09-29T18:23:44.228Z,7.00
2018-09-29T18:26:12.568Z,6.70
2018-09-29T18:28:41.009Z,6.60
2018-09-29T18:31:09.385Z,6.50
2018-09-29T18:33:37.753Z,6.40
2018-09-29T18:36:06.191Z,6.30
2018-09-29T18:38:34.513Z,6.20
2018-09-29T18:41:02.841Z,6.10
2018-09-29T18:43:31.199Z,6.00
2018-09-29T18:45:59.573Z,6.10
2018-09-29T18:48:27.936Z,6.10
2018-09-29T18:50:56.335Z,6.00
2018-09-29T18:53:24.804Z,5.80
2018-09-29T18:55:53.169Z,5.70
2018-09-29T18:58:21.646Z,5.60
2018-09-29T19:00:50.220Z,5.50
2018-09-29T19:03:18.697Z,5.40
2018-09-29T19:05:47.157Z,5.30
2018-09-29T19:08:15.609Z,5.30
2018-09-29T19:10:44.053Z,5.20
2018-09-29T19:13:12.509Z,5.30
2018-09-29T19:15:40.992Z,5.40
2018-09-29T19:18:09.423Z,5.30
2018-09-29T19:20:37.928Z,5.30
2018-09-29T19:23:06.460Z,5.20
2018-09-29T19:25:34.921Z,5.10
2018-09-29T19:28:03.410Z,5.00
2018-09-29T19:30:31.884Z,4.90
2018-09-29T19:33:00.381Z,4.90
2018-09-29T19:35:28.810Z,4.70
2018-09-29T19:37:57.232Z,4.50
2018-09-29T19:40:25.636Z,4.40
2018-09-29T19:42:54.054Z,4.30
2018-09-29T19:45:23.284Z,4.40
2018-09-29T19:47:52.048Z,4.50
2018-09-29T19:50:20.461Z,4.50
2018-09-29T19:52:48.929Z,4.50
2018-09-29T19:55:17.337Z,4.50
2018-09-29T19:57:45.697Z,4.50
2018-09-29T20:00:14.159Z,4.50
2018-09-29T20:02:42.563Z,4.50
2018-09-29T20:05:10.968Z,4.40
2018-09-29T20:07:39.437Z,4.30
2018-09-29T20:10:07.911Z,4.30
2018-09-29T20:12:37.302Z,4.30
2018-09-29T20:15:05.677Z,4.30
2018-09-29T20:17:35.537Z,4.30
2018-09-29T20:20:03.902Z,4.20
2018-09-29T20:22:32.591Z,4.00
2018-09-29T20:25:01.004Z,3.90
2018-09-29T20:27:29.321Z,3.80
2018-09-29T20:29:57.721Z,3.70
2018-09-29T20:32:26.037Z,3.60
2018-09-29T20:34:54.409Z,3.60
2018-09-29T20:37:22.750Z,3.60
2018-09-29T20:39:51.044Z,3.50
2018-09-29T20:42:19.464Z,3.40
2018-09-29T20:44:48.185Z,3.30
2018-09-29T20:47:16.494Z,3.30
2018-09-29T20:49:44.800Z,3.30
2018-09-29T20:52:13.140Z,3.40
2018-09-29T20:54:41.633Z,3.50
2018-09-29T20:57:09.936Z,3.60
2018-09-29T20:59:38.596Z,3.50
2018-09-29T21:02:07.159Z,3.40
2018-09-29T21:04:35.799Z,3.20
2018-09-29T21:07:04.129Z,3.10
2018-09-29T21:09:32.575Z,3.10
2018-09-29T21:12:00.901Z,3.10
2018-09-29T21:14:29.588Z,3.20
2018-09-29T21:16:57.909Z,3.30
2018-09-29T21:19:26.226Z,3.30
2018-09-29T21:21:54.554Z,3.10
2018-09-29T21:24:22.917Z,3.10
2018-09-29T21:26:51.228Z,3.10
2018-09-29T21:29:19.573Z,3.10
2018-09-29T21:31:47.984Z,3.10
2018-09-29T21:34:16.296Z,3.00
2018-09-29T21:36:44.730Z,2.90
2018-09-29T21:39:13.093Z,2.90
2018-09-29T21:41:41.576Z,2.90
2018-09-29T21:44:09.916Z,2.90
2018-09-29T21:46:38.636Z,2.90
2018-09-29T21:49:06.950Z,2.80
2018-09-29T21:51:35.957Z,2.80
2018-09-29T21:54:04.553Z,2.80
2018-09-29T21:56:32.961Z,2.70
2018-09-29T21:59:01.343Z,2.70
2018-09-29T22:01:31.472Z,2.70
2018-09-29T22:04:00.857Z,2.70
2018-09-29T22:06:29.429Z,2.80
2018-09-29T22:08:58.121Z,2.80
2018-09-29T22:11:26.520Z,2.80
2018-09-29T22:13:55.176Z,2.80
2018-09-29T22:16:23.772Z,2.80
2018-09-29T22:18:52.124Z,2.80
2018-09-29T22:21:20.464Z,2.80
2018-09-29T22:23:49.008Z,2.80
2018-09-29T22:26:17.321Z,2.80
2018-09-29T22:28:45.745Z,2.70
2018-09-29T22:31:14.045Z,2.70
2018-09-29T22:33:42.759Z,2.70
2018-09-29T22:36:11.129Z,2.80
2018-09-29T22:38:39.545Z,2.80
2018-09-29T22:41:07.900Z,2.90
2018-09-29T22:43:36.201Z,2.80
2018-09-29T22:46:04.512Z,2.70
2018-09-29T22:48:32.836Z,2.70
2018-09-29T22:51:01.142Z,2.80
2018-09-29T22:53:29.449Z,2.70
2018-09-29T22:55:57.805Z,2.70
2018-09-29T22:58:26.108Z,2.70
2018-09-29T23:00:54.493Z,2.60
2018-09-29T23:03:22.851Z,2.60
2018-09-29T23:05:51.151Z,2.70
2018-09-29T23:08:19.441Z,2.80
2018-09-29T23:10:47.799Z,2.70
2018-09-29T23:13:16.185Z,2.70
2018-09-29T23:15:44.716Z,2.70
2018-09-29T23:18:13.049Z,2.60
2018-09-29T23:20:41.648Z,2.70
2018-09-29T23:23:09.984Z,2.70
2018-09-29T23:25:38.517Z,2.60
2018-09-29T23:28:06.829Z,2.50
2018-09-29T23:30:35.216Z,2.50
2018-09-29T23:33:03.544Z,2.40
2018-09-29T23:35:31.863Z,2.40
2018-09-29T23:38:00.177Z,2.30
2018-09-29T23:40:28.492Z,2.30
2018-09-29T23:42:56.826Z,2.20
2018-09-29T23:45:25.114Z,2.20
2018-09-29T23:47:53.797Z,2.10
2018-09-29T23:50:22.108Z,2.10
2018-09-29T23:52:50.597Z,2.10
2018-09-29T23:55:18.920Z,2.00
2018-09-29T23:57:47.426Z,1.90
